Time;durP1;ratioP1;P1;durP2;ratioP2;P2;SDS_P1;SDS_P2;PMS_P1;PMS_P2;Temp;Humidity;BMP_temperature;BMP_pressure;BME280_temperature;BME280_humidity;BME280_pressure;Samples;Min_cycle;Max_cycle;Signal;HPM_P1;HPM_P2
2023/06/03 00:03:27;;;;;;;1.20;0.40;;;12.30;99.90;;;;;;12444621;28;20052;-37
2023/06/03 00:09:30;;;;;;;2.05;0.50;;;12.30;99.90;;;;;;12415728;28;20393;-37
2023/06/03 00:15:31;;;;;;;3.78;0.65;;;12.30;99.90;;;;;;12442517;28;20042;-36
2023/06/03 00:21:40;;;;;;;4.13;0.60;;;12.10;99.90;;;;;;12441232;28;20410;-36
2023/06/03 00:27:43;;;;;;;3.42;0.70;;;12.00;99.90;;;;;;12423241;28;20087;-37
2023/06/03 00:33:45;;;;;;;1.55;0.60;;;11.80;99.90;;;;;;12444135;28;20052;-36
2023/06/03 00:39:47;;;;;;;2.90;0.60;;;11.80;99.90;;;;;;12446253;28;20046;-36
2023/06/03 00:45:49;;;;;;;2.00;0.60;;;12.00;99.90;;;;;;12443210;28;20509;-37
2023/06/03 00:51:51;;;;;;;4.10;0.80;;;11.60;99.90;;;;;;12429810;28;20054;-36
2023/06/03 00:57:55;;;;;;;1.83;0.98;;;11.10;99.90;;;;;;12427498;28;20046;-36
2023/06/03 01:03:57;;;;;;;2.47;0.70;;;11.10;99.90;;;;;;12424044;28;20085;-36
2023/06/03 01:10:15;;;;;;;3.03;0.80;;;11.40;99.90;;;;;;12419001;28;20410;-37
2023/06/03 01:16:20;;;;;;;5.68;1.00;;;11.60;99.90;;;;;;12416374;28;20050;-36
2023/06/03 01:22:28;;;;;;;1.50;0.70;;;11.60;99.90;;;;;;12426997;28;20050;-39
2023/06/03 01:28:31;;;;;;;2.00;0.73;;;11.60;99.90;;;;;;12421881;28;20045;-36
2023/06/03 01:34:33;;;;;;;2.13;0.85;;;11.50;99.90;;;;;;12434230;28;20057;-36
2023/06/03 01:40:37;;;;;;;2.03;0.70;;;11.50;99.90;;;;;;12426606;28;20042;-37
2023/06/03 01:46:40;;;;;;;1.60;0.80;;;11.40;99.90;;;;;;12432856;28;20052;-37
2023/06/03 01:52:43;;;;;;;5.75;0.80;;;11.40;99.90;;;;;;12431595;28;20049;-37
2023/06/03 01:58:46;;;;;;;1.58;0.70;;;11.30;99.90;;;;;;12424360;28;20047;-37
2023/06/03 02:04:48;;;;;;;1.65;0.60;;;11.10;99.90;;;;;;12439519;28;20064;-37
2023/06/03 02:10:50;;;;;;;1.10;0.50;;;10.50;99.90;;;;;;12429969;28;20226;-37
2023/06/03 02:16:52;;;;;;;2.22;0.88;;;10.40;99.90;;;;;;12426301;28;20046;-37
2023/06/03 02:22:54;;;;;;;3.65;0.63;;;10.40;99.90;;;;;;12436967;28;20049;-36
2023/06/03 02:28:56;;;;;;;1.73;0.60;;;10.30;99.90;;;;;;12434676;28;20081;-37
2023/06/03 02:34:58;;;;;;;1.58;0.60;;;10.20;99.90;;;;;;12431360;28;20047;-37
2023/06/03 02:41:00;;;;;;;3.63;0.50;;;10.40;99.90;;;;;;12438398;28;20045;-36
2023/06/03 02:47:02;;;;;;;2.65;0.50;;;10.70;99.90;;;;;;12428235;28;20509;-37
2023/06/03 02:53:05;;;;;;;2.35;0.77;;;10.70;99.90;;;;;;12417623;28;20067;-37
2023/06/03 02:59:07;;;;;;;1.27;0.47;;;10.40;99.90;;;;;;12418976;28;20053;-38
2023/06/03 03:05:10;;;;;;;2.90;0.65;;;10.10;99.90;;;;;;12431973;28;20490;-37
2023/06/03 03:11:14;;;;;;;3.50;0.57;;;10.20;99.90;;;;;;12428480;28;20050;-37
2023/06/03 03:17:16;;;;;;;1.60;0.50;;;10.30;99.90;;;;;;12428562;28;20049;-38
2023/06/03 03:23:19;;;;;;;1.92;0.70;;;10.60;99.90;;;;;;12428514;28;20100;-38
2023/06/03 03:29:23;;;;;;;2.28;0.68;;;10.80;99.90;;;;;;12433197;28;20092;-38
2023/06/03 03:35:26;;;;;;;3.45;0.70;;;10.50;99.90;;;;;;12419198;28;20053;-38
2023/06/03 03:41:28;;;;;;;2.25;0.70;;;10.60;99.90;;;;;;12430297;28;20629;-38
2023/06/03 03:47:32;;;;;;;3.25;0.65;;;10.80;99.90;;;;;;12414101;28;20068;-38
2023/06/03 03:53:37;;;;;;;2.58;0.60;;;10.20;99.90;;;;;;12426944;28;20141;-38
2023/06/03 03:59:41;;;;;;;2.60;0.70;;;10.70;99.90;;;;;;12439454;28;20058;-38
2023/06/03 04:05:44;;;;;;;3.55;0.60;;;11.10;99.90;;;;;;12428654;28;20053;-38
2023/06/03 04:11:46;;;;;;;1.83;0.70;;;13.00;99.90;;;;;;12425270;28;20042;-38
2023/06/03 04:17:49;;;;;;;1.00;0.50;;;15.00;99.90;;;;;;12419025;28;20049;-37
2023/06/03 04:23:51;;;;;;;2.00;0.50;;;14.90;99.90;;;;;;12455917;28;20072;-37
2023/06/03 04:29:53;;;;;;;1.83;0.77;;;14.70;99.90;;;;;;12428213;28;21412;-37
2023/06/03 04:35:56;;;;;;;3.35;0.80;;;15.10;99.90;;;;;;12426759;28;20074;-38
2023/06/03 04:42:02;;;;;;;1.73;0.88;;;15.90;99.90;;;;;;12418058;28;20050;-37
2023/06/03 04:48:05;;;;;;;2.53;0.70;;;15.90;99.90;;;;;;12431171;28;20062;-37
2023/06/03 04:54:07;;;;;;;2.85;0.63;;;13.30;99.90;;;;;;12407870;28;20100;-38
2023/06/03 05:00:09;;;;;;;1.95;0.75;;;12.00;99.90;;;;;;12416361;28;20076;-38
2023/06/03 05:06:11;;;;;;;1.80;0.77;;;13.20;99.90;;;;;;12426009;28;20136;-38
2023/06/03 05:12:13;;;;;;;1.52;0.75;;;11.70;99.90;;;;;;12418663;28;20050;-38
2023/06/03 05:18:15;;;;;;;2.30;0.80;;;10.90;99.90;;;;;;12441965;28;20046;-38
2023/06/03 05:24:17;;;;;;;2.92;0.80;;;11.20;99.90;;;;;;12433130;28;20124;-38
2023/06/03 05:30:19;;;;;;;3.63;0.63;;;11.20;99.90;;;;;;12438559;28;20551;-38
2023/06/03 05:36:22;;;;;;;2.08;0.60;;;11.40;99.90;;;;;;12424279;28;20050;-37
2023/06/03 05:42:25;;;;;;;2.60;0.55;;;11.80;99.90;;;;;;12429780;28;20046;-38
2023/06/03 05:48:27;;;;;;;1.00;0.50;;;11.80;99.90;;;;;;12436197;28;20054;-38
2023/06/03 05:54:30;;;;;;;2.03;0.60;;;11.90;99.90;;;;;;12427186;28;20054;-38
2023/06/03 06:00:32;;;;;;;2.40;0.65;;;12.10;99.90;;;;;;12424777;28;20042;-38
2023/06/03 06:06:34;;;;;;;2.03;0.70;;;11.90;99.90;;;;;;12424960;28;20046;-38
2023/06/03 06:12:36;;;;;;;4.25;0.88;;;12.10;99.90;;;;;;12425281;28;20056;-38
2023/06/03 06:18:38;;;;;;;1.48;0.60;;;12.30;99.90;;;;;;12415853;28;20042;-39
2023/06/03 06:24:40;;;;;;;1.85;0.60;;;12.70;99.90;;;;;;12422817;28;20080;-38
2023/06/03 06:30:44;;;;;;;1.63;0.60;;;12.80;99.90;;;;;;12439751;28;20045;-39
2023/06/03 06:36:49;;;;;;;1.42;0.60;;;12.90;99.90;;;;;;12424145;28;20046;-38
2023/06/03 06:42:55;;;;;;;2.72;0.70;;;13.10;99.90;;;;;;12422662;28;20046;-38
2023/06/03 06:48:57;;;;;;;1.23;0.60;;;13.20;99.90;;;;;;12407722;28;20042;-39
2023/06/03 06:55:00;;;;;;;5.63;0.95;;;13.60;99.90;;;;;;12407695;28;20050;-38
2023/06/03 07:01:05;;;;;;;3.05;0.70;;;13.60;99.90;;;;;;12435667;28;20057;-38
2023/06/03 07:07:08;;;;;;;2.45;0.70;;;13.80;99.90;;;;;;12435857;28;20137;-38
2023/06/03 07:13:12;;;;;;;1.67;0.57;;;14.10;99.90;;;;;;12423687;28;20057;-37
2023/06/03 07:19:14;;;;;;;3.45;0.82;;;14.10;99.90;;;;;;12442124;28;20056;-38
2023/06/03 07:25:42;;;;;;;3.65;0.70;;;14.30;99.90;;;;;;12422721;28;20077;-37
2023/06/03 07:31:47;;;;;;;1.85;0.60;;;14.30;99.90;;;;;;12429128;28;20046;-37
2023/06/03 07:37:49;;;;;;;2.05;0.75;;;14.30;99.90;;;;;;12439384;28;20485;-37
2023/06/03 07:43:51;;;;;;;1.20;0.52;;;14.40;99.90;;;;;;12438844;28;20037;-38
2023/06/03 07:49:55;;;;;;;1.70;0.85;;;14.60;99.90;;;;;;12433565;28;20049;-39
2023/06/03 07:55:58;;;;;;;;;;;14.90;99.90;;;;;;12439558;28;20038;-36
2023/06/03 08:02:00;;;;;;;1.73;0.57;;;14.80;99.90;;;;;;12429305;28;19925;-38
2023/06/03 08:08:10;;;;;;;2.33;0.73;;;15.10;99.90;;;;;;12423558;28;20104;-39
2023/06/03 08:14:12;;;;;;;1.92;0.52;;;14.80;99.90;;;;;;12438648;28;20105;-38
2023/06/03 08:20:28;;;;;;;2.80;0.55;;;15.10;99.90;;;;;;12431551;28;20042;-37
2023/06/03 08:26:29;;;;;;;3.25;0.70;;;15.20;99.90;;;;;;12397510;28;20077;-38
2023/06/03 08:32:35;;;;;;;2.75;0.68;;;15.20;99.90;;;;;;12407344;28;20053;-38
2023/06/03 08:38:40;;;;;;;1.60;1.00;;;15.30;99.90;;;;;;12411798;28;20049;-38
2023/06/03 08:44:59;;;;;;;1.42;0.50;;;15.30;99.90;;;;;;12411409;28;20046;-37
2023/06/03 08:51:05;;;;;;;3.88;0.57;;;15.10;99.90;;;;;;12414897;28;20458;-38
2023/06/03 08:57:11;;;;;;;1.95;0.60;;;15.40;99.90;;;;;;12423484;28;20087;-37
2023/06/03 09:03:16;;;;;;;1.38;0.70;;;15.50;99.90;;;;;;12436822;28;20053;-37
2023/06/03 09:09:20;;;;;;;1.75;0.60;;;15.70;99.90;;;;;;12431731;28;20144;-38
2023/06/03 09:15:23;;;;;;;1.10;0.50;;;15.80;99.90;;;;;;12436625;28;20046;-37
2023/06/03 09:21:26;;;;;;;1.63;0.57;;;16.20;99.90;;;;;;12429775;28;20046;-37
2023/06/03 09:27:28;;;;;;;1.53;0.50;;;16.60;99.90;;;;;;12437671;28;20046;-37
2023/06/03 09:33:31;;;;;;;3.03;0.60;;;16.60;99.90;;;;;;12427467;28;20561;-37
2023/06/03 09:39:33;;;;;;;1.58;0.50;;;17.20;99.90;;;;;;12435262;28;20052;-37
2023/06/03 09:45:36;;;;;;;2.65;0.60;;;16.70;99.90;;;;;;12438203;28;20050;-39
2023/06/03 09:51:46;;;;;;;1.63;0.60;;;16.70;99.90;;;;;;12439579;28;20038;-38
2023/06/03 09:58:09;;;;;;;1.30;0.57;;;16.70;99.90;;;;;;12441079;28;20477;-37
2023/06/03 10:04:12;;;;;;;1.03;0.40;;;17.00;99.90;;;;;;12444725;28;20391;-38
2023/06/03 10:10:18;;;;;;;2.97;0.90;;;17.70;99.90;;;;;;12458689;28;20300;-38
2023/06/03 10:16:20;;;;;;;0.95;0.50;;;17.50;99.90;;;;;;12464154;28;20057;-38
2023/06/03 10:22:24;;;;;;;4.10;0.70;;;17.60;99.90;;;;;;12431547;28;20049;-38
2023/06/03 10:28:26;;;;;;;2.88;0.60;;;17.70;99.90;;;;;;12437653;28;20065;-38
2023/06/03 10:34:29;;;;;;;2.97;0.68;;;17.30;99.90;;;;;;12466613;28;20042;-38
2023/06/03 10:40:31;;;;;;;1.75;0.60;;;17.30;99.90;;;;;;12444798;28;20088;-38
2023/06/03 10:46:35;;;;;;;3.70;0.52;;;17.50;99.90;;;;;;12452178;28;20481;-38
2023/06/03 10:52:37;;;;;;;3.10;0.52;;;18.00;99.90;;;;;;12443298;28;20103;-37
2023/06/03 10:58:42;;;;;;;3.22;0.47;;;17.90;99.90;;;;;;12453502;28;20045;-38
2023/06/03 11:04:44;;;;;;;2.13;0.65;;;18.50;99.90;;;;;;12432230;28;20049;-37
2023/06/03 11:10:47;;;;;;;2.35;0.57;;;18.10;99.90;;;;;;12410804;28;20523;-38
2023/06/03 11:16:57;;;;;;;3.90;0.60;;;18.50;99.90;;;;;;12432363;28;20136;-38
2023/06/03 11:22:59;;;;;;;0.98;0.50;;;18.20;99.90;;;;;;12420288;28;20045;-38
2023/06/03 11:29:05;;;;;;;1.83;0.52;;;18.70;99.90;;;;;;12433083;28;20054;-38
2023/06/03 11:35:07;;;;;;;3.45;0.60;;;18.90;99.90;;;;;;12432406;28;20533;-39
2023/06/03 11:41:09;;;;;;;2.70;0.60;;;18.60;99.90;;;;;;12438439;28;20065;-38
2023/06/03 11:47:11;;;;;;;2.40;0.60;;;18.90;99.90;;;;;;12429822;28;20145;-39
2023/06/03 11:53:33;;;;;;;0.95;0.47;;;19.20;99.90;;;;;;12468687;28;20061;-38
2023/06/03 11:59:43;;;;;;;3.22;0.60;;;19.10;99.90;;;;;;12436017;28;20046;-38
2023/06/03 12:06:01;;;;;;;1.77;0.57;;;18.80;99.90;;;;;;12422164;28;20091;-38
2023/06/03 12:12:08;;;;;;;3.08;0.70;;;19.60;99.90;;;;;;12415341;28;20099;-39
2023/06/03 12:18:10;;;;;;;3.63;0.70;;;19.60;99.90;;;;;;12430364;28;20046;-38
2023/06/03 12:24:12;;;;;;;3.28;0.60;;;19.00;99.90;;;;;;12416836;28;20037;-39
2023/06/03 12:30:29;;;;;;;3.25;0.80;;;19.10;99.90;;;;;;12436982;28;20050;-38
2023/06/03 12:36:47;;;;;;;2.55;0.55;;;19.60;99.90;;;;;;12446292;28;20136;-39
2023/06/03 12:42:50;;;;;;;4.85;0.60;;;18.20;99.90;;;;;;12423959;28;20061;-37
2023/06/03 12:48:56;;;;;;;3.90;0.80;;;18.20;99.90;;;;;;12439457;28;20046;-38
2023/06/03 12:54:59;;;;;;;3.35;0.70;;;18.60;99.90;;;;;;12418210;28;20057;-39
2023/06/03 13:01:01;;;;;;;1.00;0.50;;;19.10;99.90;;;;;;12422860;28;20100;-38
2023/06/03 13:07:03;;;;;;;1.15;0.60;;;18.80;99.90;;;;;;12423580;28;20081;-39
2023/06/03 13:13:05;;;;;;;4.40;0.70;;;19.50;99.90;;;;;;12412911;28;20553;-38
2023/06/03 13:19:07;;;;;;;4.68;0.88;;;19.00;99.90;;;;;;12435827;28;20049;-39
2023/06/03 13:25:09;;;;;;;1.88;0.65;;;18.90;99.90;;;;;;12411697;28;20070;-40
2023/06/03 13:31:13;;;;;;;1.92;0.70;;;18.60;99.90;;;;;;12396099;28;20054;-37
2023/06/03 13:37:15;;;;;;;1.48;0.70;;;17.80;99.90;;;;;;12421039;28;20046;-38
2023/06/03 13:43:17;;;;;;;2.50;0.57;;;17.50;99.90;;;;;;12422228;28;20054;-38
2023/06/03 13:49:19;;;;;;;3.92;0.80;;;17.50;99.90;;;;;;12428423;28;20624;-38
2023/06/03 13:55:21;;;;;;;2.28;0.80;;;17.40;99.90;;;;;;12420304;28;20418;-38
2023/06/03 14:01:25;;;;;;;4.00;0.65;;;17.20;99.90;;;;;;12414729;28;20128;-38
2023/06/03 14:07:28;;;;;;;;;;;17.70;99.90;;;;;;12422460;28;20053;-39
2023/06/03 14:13:31;;;;;;;2.00;0.70;;;18.30;99.90;;;;;;12401430;28;19929;-39
2023/06/03 14:19:33;;;;;;;1.97;0.83;;;18.60;99.90;;;;;;12402129;28;20050;-38
2023/06/03 14:25:35;;;;;;;2.97;0.80;;;18.80;99.90;;;;;;12402943;28;20065;-39
2023/06/03 14:31:38;;;;;;;1.20;0.70;;;18.70;99.90;;;;;;12414924;28;20050;-40
2023/06/03 14:37:40;;;;;;;5.32;0.88;;;18.90;99.90;;;;;;12423359;28;20133;-38
2023/06/03 14:43:42;;;;;;;1.42;0.63;;;18.70;99.90;;;;;;12417796;28;20053;-38
2023/06/03 14:49:44;;;;;;;1.60;0.90;;;18.50;99.90;;;;;;12427908;28;20077;-38
2023/06/03 14:55:47;;;;;;;2.85;0.70;;;18.60;99.90;;;;;;12416794;28;20046;-40
2023/06/03 15:01:50;;;;;;;1.52;0.75;;;18.70;99.90;;;;;;12425883;28;20434;-38
2023/06/03 15:07:52;;;;;;;1.77;0.77;;;18.70;99.90;;;;;;12430320;28;20057;-38
2023/06/03 15:13:54;;;;;;;4.63;0.80;;;18.90;99.90;;;;;;12431003;28;20034;-39
2023/06/03 15:19:55;;;;;;;2.45;0.60;;;18.80;99.90;;;;;;12431436;28;20046;-38
2023/06/03 15:25:58;;;;;;;3.20;0.70;;;18.80;99.90;;;;;;12430031;28;20541;-38
2023/06/03 15:32:00;;;;;;;4.30;0.80;;;18.80;99.90;;;;;;12433857;28;20696;-39
2023/06/03 15:38:03;;;;;;;2.65;0.75;;;18.80;99.90;;;;;;12422198;28;20483;-39
2023/06/03 15:44:05;;;;;;;2.95;0.60;;;18.80;99.90;;;;;;12422531;28;20092;-38
2023/06/03 15:50:07;;;;;;;2.45;1.05;;;18.90;99.90;;;;;;12421549;28;20136;-39
2023/06/03 15:56:09;;;;;;;3.92;1.00;;;19.20;99.90;;;;;;12406175;28;20460;-38
2023/06/03 16:02:11;;;;;;;4.00;0.55;;;19.10;99.90;;;;;;12441072;28;20100;-40
2023/06/03 16:08:13;;;;;;;2.28;0.80;;;19.00;99.90;;;;;;12431907;28;20058;-38
2023/06/03 16:14:15;;;;;;;1.60;0.57;;;19.10;99.90;;;;;;12458700;28;20073;-39
2023/06/03 16:20:17;;;;;;;1.50;0.60;;;19.00;99.90;;;;;;12429674;28;20528;-40
2023/06/03 16:26:21;;;;;;;2.20;0.73;;;18.90;99.90;;;;;;12462232;28;20421;-38
2023/06/03 16:32:23;;;;;;;1.33;0.70;;;19.10;99.90;;;;;;12443421;28;20044;-38
2023/06/03 16:38:25;;;;;;;3.08;0.80;;;18.90;99.90;;;;;;12437993;28;20050;-38
2023/06/03 16:44:27;;;;;;;1.20;0.70;;;18.80;99.10;;;;;;12438266;28;20545;-38
2023/06/03 16:50:29;;;;;;;3.30;0.70;;;18.90;99.90;;;;;;12431792;28;20046;-38
2023/06/03 16:56:31;;;;;;;2.08;0.60;;;19.10;99.90;;;;;;12421657;28;20311;-37
2023/06/03 17:02:33;;;;;;;3.72;0.82;;;19.10;99.50;;;;;;12424419;28;20042;-38
2023/06/03 17:08:35;;;;;;;1.80;0.65;;;19.00;96.80;;;;;;12433545;28;20042;-39
2023/06/03 17:14:37;;;;;;;2.00;0.75;;;19.20;99.90;;;;;;12444352;28;20052;-38
2023/06/03 17:20:40;;;;;;;1.55;0.63;;;19.10;99.90;;;;;;12440525;28;20802;-38
2023/06/03 17:26:42;;;;;;;5.80;0.85;;;19.00;99.90;;;;;;12437590;28;20062;-37
2023/06/03 17:32:44;;;;;;;4.93;0.70;;;18.80;96.00;;;;;;12437064;28;20038;-39
2023/06/03 17:38:46;;;;;;;3.40;0.70;;;19.00;97.20;;;;;;12450586;28;20046;-38
2023/06/03 17:44:48;;;;;;;1.15;0.50;;;18.90;95.10;;;;;;12448125;28;20045;-38
2023/06/03 17:50:51;;;;;;;2.03;0.63;;;19.00;97.40;;;;;;12464826;28;20482;-39
2023/06/03 17:56:53;;;;;;;3.25;0.77;;;18.80;95.00;;;;;;12448586;28;20050;-38
2023/06/03 18:02:55;;;;;;;3.67;0.90;;;19.00;96.50;;;;;;12447676;28;20046;-38
2023/06/03 18:08:57;;;;;;;4.75;0.80;;;18.80;96.10;;;;;;12424802;28;20137;-37
2023/06/03 18:15:00;;;;;;;4.05;0.80;;;18.60;95.60;;;;;;12431565;28;20517;-38
2023/06/03 18:21:02;;;;;;;2.42;0.80;;;18.20;96.70;;;;;;12411252;28;20188;-38
2023/06/03 18:27:04;;;;;;;4.30;0.70;;;18.00;96.70;;;;;;12413173;28;20057;-37
2023/06/03 18:33:07;;;;;;;1.38;0.70;;;17.90;97.50;;;;;;12427481;28;20042;-38
2023/06/03 18:39:09;;;;;;;2.05;0.82;;;17.70;97.00;;;;;;12405332;28;20200;-38
2023/06/03 18:45:13;;;;;;;3.03;0.90;;;17.60;97.80;;;;;;12432284;28;20541;-38
2023/06/03 18:51:15;;;;;;;2.20;0.75;;;17.50;98.20;;;;;;12425561;28;20096;-37
2023/06/03 18:57:17;;;;;;;2.50;0.90;;;17.40;99.10;;;;;;12434792;28;20042;-39
2023/06/03 19:03:19;;;;;;;1.67;0.75;;;17.30;99.90;;;;;;12417305;28;1108391;-37
2023/06/03 19:09:29;;;;;;;3.38;1.20;;;17.30;99.90;;;;;;12418948;28;20053;-38
2023/06/03 19:15:33;;;;;;;3.17;0.80;;;17.30;99.90;;;;;;12432834;28;20456;-38
2023/06/03 19:21:36;;;;;;;1.92;0.80;;;17.50;99.90;;;;;;12422232;28;20046;-38
2023/06/03 19:27:38;;;;;;;1.15;0.70;;;17.40;99.90;;;;;;12431067;28;20049;-38
2023/06/03 19:33:43;;;;;;;1.38;0.77;;;17.20;99.90;;;;;;12437297;28;20046;-38
2023/06/03 19:39:45;;;;;;;1.70;0.80;;;17.10;99.90;;;;;;12445134;28;20044;-37
2023/06/03 19:45:46;;;;;;;3.10;0.90;;;16.90;99.90;;;;;;12437674;28;20073;-38
2023/06/03 19:51:48;;;;;;;1.70;0.80;;;16.80;99.90;;;;;;12432444;28;20042;-37
2023/06/03 19:57:50;;;;;;;2.03;0.85;;;16.60;99.90;;;;;;12436325;28;20628;-37
2023/06/03 20:03:52;;;;;;;5.18;0.98;;;16.30;99.90;;;;;;12445099;28;20056;-38
2023/06/03 20:09:54;;;;;;;2.10;0.60;;;16.10;99.90;;;;;;12435481;28;20405;-38
2023/06/03 20:15:56;;;;;;;1.52;0.70;;;16.00;99.90;;;;;;12464697;28;20050;-37
2023/06/03 20:21:59;;;;;;;3.42;0.75;;;15.90;99.90;;;;;;12445989;28;20037;-38
2023/06/03 20:28:03;;;;;;;2.33;0.82;;;15.80;99.90;;;;;;12442897;28;20084;-38
2023/06/03 20:34:05;;;;;;;1.98;0.85;;;15.50;99.90;;;;;;12441139;28;20166;-38
2023/06/03 20:40:07;;;;;;;2.63;0.90;;;15.40;99.90;;;;;;12443246;28;20052;-38
2023/06/03 20:46:09;;;;;;;2.22;0.82;;;15.20;99.90;;;;;;12407976;28;20049;-38
2023/06/03 20:52:19;;;;;;;1.90;0.90;;;15.10;99.90;;;;;;12439895;28;20053;-38
2023/06/03 20:58:21;;;;;;;1.25;0.55;;;15.00;99.90;;;;;;12437321;28;20104;-38
2023/06/03 21:04:23;;;;;;;1.10;0.60;;;14.90;99.90;;;;;;12441758;28;20422;-37
2023/06/03 21:10:25;;;;;;;2.03;0.77;;;14.80;99.90;;;;;;12437883;28;20069;-37
2023/06/03 21:16:27;;;;;;;1.08;0.70;;;14.50;99.90;;;;;;12433534;28;20049;-38
2023/06/03 21:22:29;;;;;;;4.68;0.82;;;14.40;99.90;;;;;;12424812;28;20046;-38
2023/06/03 21:28:31;;;;;;;1.30;0.70;;;14.20;99.90;;;;;;12438877;28;20057;-38
2023/06/03 21:34:33;;;;;;;1.90;0.85;;;14.10;99.90;;;;;;12421280;28;20061;-37
2023/06/03 21:40:34;;;;;;;2.40;1.10;;;14.00;99.90;;;;;;12429882;28;20068;-38
2023/06/03 21:46:36;;;;;;;1.58;0.80;;;14.00;99.90;;;;;;12423627;28;20056;-38
2023/06/03 21:52:42;;;;;;;1.40;0.70;;;13.90;99.90;;;;;;12419417;28;20046;-38
2023/06/03 21:58:44;;;;;;;2.40;1.00;;;13.80;99.90;;;;;;12448756;28;20046;-37
2023/06/03 22:04:45;;;;;;;1.33;0.75;;;13.60;99.90;;;;;;12440162;28;20149;-38
2023/06/03 22:10:47;;;;;;;2.78;1.17;;;13.60;99.90;;;;;;12439921;28;20418;-38
2023/06/03 22:16:49;;;;;;;2.90;1.10;;;13.40;99.90;;;;;;12434795;28;20074;-37
2023/06/03 22:22:53;;;;;;;3.08;1.20;;;13.40;99.90;;;;;;12455793;28;20058;-38
2023/06/03 22:29:07;;;;;;;2.13;1.10;;;13.40;99.90;;;;;;12451110;28;20085;-37
2023/06/03 22:35:10;;;;;;;1.55;0.90;;;13.30;99.90;;;;;;12461873;28;20038;-39
2023/06/03 22:41:11;;;;;;;1.73;0.70;;;13.10;99.90;;;;;;12450476;28;20132;-37
2023/06/03 22:47:13;;;;;;;1.98;0.80;;;13.00;99.90;;;;;;12435478;28;20049;-38
2023/06/03 22:53:16;;;;;;;2.72;0.98;;;13.00;99.90;;;;;;12417451;28;20084;-37
2023/06/03 22:59:18;;;;;;;1.92;0.90;;;12.90;99.90;;;;;;12446394;28;20065;-37
2023/06/03 23:05:20;;;;;;;1.83;1.00;;;12.80;99.90;;;;;;12444244;28;20049;-37
2023/06/03 23:11:22;;;;;;;1.92;0.85;;;12.80;99.90;;;;;;12428712;28;20054;-37
2023/06/03 23:17:24;;;;;;;2.08;1.00;;;12.60;99.90;;;;;;12429985;28;20563;-37
2023/06/03 23:23:26;;;;;;;1.83;0.93;;;12.60;99.90;;;;;;12453863;28;20057;-37
2023/06/03 23:29:28;;;;;;;2.55;1.00;;;12.50;99.90;;;;;;12432353;28;20057;-37
2023/06/03 23:35:30;;;;;;;2.33;0.70;;;12.50;99.90;;;;;;12447234;28;20049;-37
2023/06/03 23:41:39;;;;;;;2.03;1.05;;;12.40;99.90;;;;;;12462648;28;20506;-37
2023/06/03 23:47:41;;;;;;;2.20;0.85;;;12.30;99.90;;;;;;12428808;28;20398;-37
2023/06/03 23:53:43;;;;;;;2.25;1.20;;;12.30;99.90;;;;;;12419775;28;20046;-37
2023/06/03 23:59:45;;;;;;;1.60;0.90;;;12.20;99.90;;;;;;12417133;28;20072;-37
